Time;durP1;ratioP1;P1;durP2;ratioP2;P2;SDS_P1;SDS_P2;PMS_P1;PMS_P2;Temp;Humidity;BMP_temperature;BMP_pressure;BME280_temperature;BME280_humidity;BME280_pressure;Samples;Min_cycle;Max_cycle;Signal;HPM_P1;HPM_P2
2022/08/24 00:01:02;;;;;;;4.63;2.05;;;23.90;99.90;;;;;;5090499;28;20377;-66
2022/08/24 00:03:28;;;;;;;4.05;1.80;;;23.90;99.90;;;;;;5091369;28;20407;-66
2022/08/24 00:05:54;;;;;;;2.65;1.60;;;23.90;99.90;;;;;;5090154;28;20454;-66
2022/08/24 00:08:19;;;;;;;4.13;1.50;;;23.80;99.90;;;;;;5107980;28;20719;-66
2022/08/24 00:10:45;;;;;;;3.55;1.50;;;23.80;99.90;;;;;;5090293;28;20466;-66
2022/08/24 00:13:12;;;;;;;2.60;1.60;;;23.80;99.90;;;;;;5090599;28;20376;-66
2022/08/24 00:15:39;;;;;;;3.38;1.50;;;23.70;99.90;;;;;;5089828;28;20735;-66
2022/08/24 00:18:04;;;;;;;4.55;1.55;;;23.70;99.90;;;;;;5088544;28;20379;-66
2022/08/24 00:20:30;;;;;;;2.55;1.70;;;23.70;99.90;;;;;;5089609;28;20384;-66
2022/08/24 00:22:56;;;;;;;2.97;1.40;;;23.60;99.90;;;;;;5091556;28;20378;-66
2022/08/24 00:25:21;;;;;;;3.50;1.60;;;23.70;99.90;;;;;;5091293;28;20830;-65
2022/08/24 00:27:47;;;;;;;2.97;1.50;;;23.60;99.90;;;;;;5089505;28;20474;-66
2022/08/24 00:30:17;;;;;;;3.45;1.50;;;23.60;99.90;;;;;;5087150;28;20396;-66
2022/08/24 00:32:44;;;;;;;5.00;1.70;;;23.50;99.90;;;;;;5087565;28;20380;-67
2022/08/24 00:35:11;;;;;;;4.60;1.60;;;23.50;99.90;;;;;;5089541;28;20860;-66
2022/08/24 00:37:37;;;;;;;3.13;1.50;;;23.50;99.90;;;;;;5089836;28;20479;-66
2022/08/24 00:40:11;;;;;;;3.53;1.50;;;23.40;99.90;;;;;;5089042;28;20415;-66
2022/08/24 00:42:38;;;;;;;5.97;1.63;;;23.40;99.90;;;;;;5089450;28;20366;-66
2022/08/24 00:45:06;;;;;;;3.30;1.40;;;23.30;99.90;;;;;;5092099;28;20381;-66
2022/08/24 00:47:41;;;;;;;2.40;1.67;;;23.20;99.90;;;;;;5092098;28;20654;-65
2022/08/24 00:50:12;;;;;;;2.83;1.47;;;23.20;99.90;;;;;;5091386;28;20381;-66
2022/08/24 00:52:45;;;;;;;3.95;1.90;;;23.10;99.90;;;;;;5091540;28;20393;-66
2022/08/24 00:55:22;;;;;;;3.60;1.70;;;23.10;99.90;;;;;;5091719;28;20735;-66
2022/08/24 00:57:51;;;;;;;2.80;1.60;;;23.10;99.90;;;;;;5091809;28;20378;-66
2022/08/24 01:00:22;;;;;;;4.05;1.45;;;23.10;99.90;;;;;;5092186;28;20382;-66
2022/08/24 01:02:52;;;;;;;2.85;1.40;;;23.00;99.90;;;;;;5094687;28;20386;-66
2022/08/24 01:05:18;;;;;;;4.07;1.42;;;23.00;99.90;;;;;;5093613;28;20801;-66
2022/08/24 01:07:48;;;;;;;3.90;1.50;;;22.90;99.90;;;;;;5095708;28;20381;-66
2022/08/24 01:10:18;;;;;;;3.80;1.67;;;22.90;99.90;;;;;;5095876;28;20401;-66
2022/08/24 01:12:47;;;;;;;3.00;1.45;;;22.90;99.90;;;;;;5093780;28;20382;-66
2022/08/24 01:15:15;;;;;;;3.20;1.42;;;22.90;99.90;;;;;;5093575;28;20412;-66
2022/08/24 01:20:25;;;;;;;2.72;1.50;;;22.70;99.90;;;;;;5094021;28;20405;-66
2022/08/24 01:23:12;;;;;;;3.90;1.90;;;22.70;99.90;;;;;;5093388;28;20727;-66
2022/08/24 01:25:40;;;;;;;3.30;1.80;;;22.70;99.90;;;;;;5092380;28;20430;-66
2022/08/24 01:28:12;;;;;;;3.17;1.70;;;22.70;99.90;;;;;;5090834;28;20658;-66
2022/08/24 01:30:37;;;;;;;2.45;1.30;;;22.70;99.90;;;;;;5090655;28;20390;-66
2022/08/24 01:33:08;;;;;;;3.97;1.67;;;22.60;99.90;;;;;;5091221;28;20386;-66
2022/08/24 01:35:35;;;;;;;3.45;1.40;;;22.50;99.90;;;;;;5092945;28;20411;-66
2022/08/24 01:38:07;;;;;;;3.77;1.50;;;22.50;99.90;;;;;;5093333;28;20810;-66
2022/08/24 01:40:37;;;;;;;3.00;1.60;;;22.40;99.90;;;;;;5092959;28;20396;-66
2022/08/24 01:43:06;;;;;;;2.13;1.60;;;22.40;99.90;;;;;;5092130;28;20376;-65
2022/08/24 01:45:32;;;;;;;2.88;1.45;;;22.40;99.90;;;;;;5091387;28;20739;-66
2022/08/24 01:47:58;;;;;;;3.35;1.80;;;22.40;99.90;;;;;;5092952;28;20380;-66
2022/08/24 01:50:25;;;;;;;4.37;1.60;;;22.40;99.90;;;;;;5093271;28;20434;-66
2022/08/24 01:52:52;;;;;;;2.95;1.40;;;22.30;99.90;;;;;;5093223;28;20380;-66
2022/08/24 01:55:18;;;;;;;4.03;1.80;;;22.30;99.90;;;;;;5093748;28;20782;-65
2022/08/24 01:57:43;;;;;;;4.43;1.38;;;22.30;99.90;;;;;;5092881;28;20372;-65
2022/08/24 02:00:13;;;;;;;5.70;1.70;;;22.20;99.90;;;;;;5096175;28;20395;-65
2022/08/24 02:02:41;;;;;;;2.05;1.52;;;22.20;99.90;;;;;;5096651;28;20377;-66
2022/08/24 02:05:08;;;;;;;2.50;1.33;;;22.20;99.90;;;;;;5097202;28;20380;-66
2022/08/24 02:07:34;;;;;;;3.85;1.90;;;22.20;99.90;;;;;;5095373;28;20376;-66
2022/08/24 02:09:59;;;;;;;4.43;1.83;;;22.10;99.90;;;;;;5094670;28;20831;-66
2022/08/24 02:12:26;;;;;;;2.87;1.50;;;22.10;99.90;;;;;;5096059;28;20470;-66
2022/08/24 02:14:51;;;;;;;3.13;1.40;;;22.00;99.90;;;;;;5096778;28;20426;-66
2022/08/24 02:17:17;;;;;;;3.45;1.65;;;22.00;99.90;;;;;;5096611;28;20377;-66
2022/08/24 02:19:43;;;;;;;3.25;1.50;;;22.00;99.90;;;;;;5112240;28;20364;-66
2022/08/24 02:22:09;;;;;;;2.47;1.50;;;21.90;99.90;;;;;;5094299;28;20399;-66
2022/08/24 02:24:36;;;;;;;3.28;1.70;;;21.90;99.90;;;;;;5093033;28;20699;-66
2022/08/24 02:27:01;;;;;;;4.43;1.73;;;21.80;99.90;;;;;;5094021;28;20637;-66
2022/08/24 02:29:28;;;;;;;3.55;1.60;;;21.80;99.90;;;;;;5093526;28;20380;-66
2022/08/24 02:31:53;;;;;;;3.65;1.88;;;21.70;99.90;;;;;;5094493;28;20380;-66
2022/08/24 02:34:20;;;;;;;3.63;1.63;;;21.70;99.90;;;;;;5094223;28;20408;-66
2022/08/24 02:36:45;;;;;;;3.22;1.58;;;21.80;99.90;;;;;;5096081;28;20427;-66
2022/08/24 02:39:11;;;;;;;3.72;1.73;;;21.70;99.90;;;;;;5112703;28;20792;-66
2022/08/24 02:41:37;;;;;;;4.28;1.52;;;21.70;99.90;;;;;;5078051;28;20384;-66
2022/08/24 02:44:04;;;;;;;2.50;1.50;;;21.70;99.90;;;;;;5112558;28;20756;-66
2022/08/24 02:46:30;;;;;;;4.35;1.80;;;21.70;99.90;;;;;;5112879;28;20756;-67
2022/08/24 02:49:00;;;;;;;4.20;1.70;;;21.70;99.90;;;;;;5094805;28;20479;-66
2022/08/24 02:51:28;;;;;;;2.78;1.52;;;21.70;99.90;;;;;;5111077;28;20419;-66
2022/08/24 02:53:56;;;;;;;3.08;1.70;;;21.60;99.90;;;;;;5093131;28;20437;-67
2022/08/24 02:56:21;;;;;;;3.05;1.58;;;21.60;99.90;;;;;;5091493;28;20427;-66
2022/08/24 02:58:47;;;;;;;3.75;1.65;;;21.60;99.90;;;;;;5110828;28;20661;-66
2022/08/24 03:01:14;;;;;;;3.90;1.70;;;21.60;99.90;;;;;;5094287;28;20449;-66
2022/08/24 03:03:40;;;;;;;2.80;1.55;;;21.60;99.90;;;;;;5094989;28;20372;-67
2022/08/24 03:06:07;;;;;;;2.70;1.70;;;21.50;99.90;;;;;;5096074;28;20425;-66
2022/08/24 03:08:33;;;;;;;3.80;1.60;;;21.50;99.90;;;;;;5113134;28;20392;-66
2022/08/24 03:10:59;;;;;;;4.07;1.70;;;21.40;99.90;;;;;;5095216;28;20679;-67
2022/08/24 03:13:26;;;;;;;3.17;1.80;;;21.40;99.90;;;;;;5095818;28;20877;-67
2022/08/24 03:15:52;;;;;;;3.45;1.65;;;21.40;99.90;;;;;;5096173;28;20435;-66
2022/08/24 03:18:18;;;;;;;2.97;1.70;;;21.40;99.90;;;;;;5096564;28;20678;-67
2022/08/24 03:20:44;;;;;;;2.30;1.48;;;21.30;99.90;;;;;;5113127;28;20805;-66
2022/08/24 03:23:10;;;;;;;3.40;2.00;;;21.30;99.90;;;;;;5095714;28;20398;-67
2022/08/24 03:25:35;;;;;;;5.10;2.10;;;21.30;99.90;;;;;;5093027;28;20400;-66
2022/08/24 03:28:01;;;;;;;2.93;1.67;;;21.30;99.90;;;;;;5092543;28;20551;-66
2022/08/24 03:30:27;;;;;;;2.87;1.73;;;21.30;99.90;;;;;;5093235;28;20467;-66
2022/08/24 03:32:53;;;;;;;3.45;2.00;;;21.30;99.90;;;;;;5111964;28;20387;-66
2022/08/24 03:35:21;;;;;;;3.28;1.90;;;21.20;99.90;;;;;;5088792;28;20706;-66
2022/08/24 03:37:48;;;;;;;2.65;1.85;;;21.20;99.90;;;;;;5087594;28;20392;-66
2022/08/24 03:40:14;;;;;;;3.97;1.92;;;21.10;99.90;;;;;;5086679;28;20394;-66
2022/08/24 03:42:39;;;;;;;5.53;2.10;;;21.20;99.90;;;;;;5087882;28;20650;-67
2022/08/24 03:45:06;;;;;;;4.17;1.83;;;21.10;99.90;;;;;;5089747;28;20446;-66
2022/08/24 03:47:32;;;;;;;4.68;2.00;;;21.10;99.90;;;;;;5088787;28;20390;-66
2022/08/24 03:49:57;;;;;;;3.20;1.83;;;21.10;99.90;;;;;;5088454;28;20382;-67
2022/08/24 03:52:23;;;;;;;4.65;1.80;;;21.00;99.90;;;;;;5087689;28;20741;-65
2022/08/24 03:54:48;;;;;;;4.83;1.80;;;21.00;99.90;;;;;;5088527;28;20740;-65
2022/08/24 03:57:14;;;;;;;4.10;1.83;;;21.00;99.90;;;;;;5090870;28;20382;-65
2022/08/24 03:59:40;;;;;;;4.67;2.00;;;20.90;99.90;;;;;;5089120;28;20811;-65
2022/08/24 04:02:05;;;;;;;3.57;1.90;;;20.90;99.90;;;;;;5086822;28;20476;-64
2022/08/24 04:04:31;;;;;;;3.67;1.90;;;20.90;99.90;;;;;;5086786;28;20451;-65
2022/08/24 04:06:57;;;;;;;4.30;2.30;;;20.80;99.90;;;;;;5085273;28;20697;-65
2022/08/24 04:09:23;;;;;;;4.35;2.08;;;20.80;99.90;;;;;;5089112;28;20409;-65
2022/08/24 04:11:49;;;;;;;4.95;2.00;;;20.80;99.90;;;;;;5090313;28;20382;-65
2022/08/24 04:14:16;;;;;;;2.45;1.80;;;20.70;99.90;;;;;;5089446;28;20443;-65
2022/08/24 04:16:43;;;;;;;5.67;2.10;;;20.70;99.90;;;;;;5089239;28;20416;-65
2022/08/24 04:19:09;;;;;;;5.18;2.40;;;20.70;99.90;;;;;;5085593;28;20609;-65
2022/08/24 04:21:36;;;;;;;3.72;1.88;;;20.70;99.90;;;;;;5085351;28;20400;-65
2022/08/24 04:24:03;;;;;;;3.60;1.90;;;20.70;99.90;;;;;;5086346;28;20499;-65
2022/08/24 04:26:30;;;;;;;4.50;2.10;;;20.70;99.90;;;;;;5087332;28;20388;-66
2022/08/24 04:28:56;;;;;;;5.53;2.17;;;20.70;99.90;;;;;;5091230;28;20384;-66
2022/08/24 04:31:23;;;;;;;3.80;2.05;;;20.70;99.90;;;;;;5090631;28;20386;-65
2022/08/24 04:33:50;;;;;;;3.35;2.08;;;20.60;99.90;;;;;;5091914;28;20438;-65
2022/08/24 04:36:18;;;;;;;5.53;2.20;;;20.60;99.90;;;;;;5091860;28;20411;-65
2022/08/24 04:38:44;;;;;;;4.57;2.20;;;20.70;99.90;;;;;;5090164;28;20436;-65
2022/08/24 04:41:11;;;;;;;4.90;2.38;;;20.60;99.90;;;;;;5087771;28;20911;-65
2022/08/24 04:43:38;;;;;;;3.53;2.20;;;20.60;99.90;;;;;;5087811;28;20915;-65
2022/08/24 04:46:08;;;;;;;4.00;2.13;;;20.50;99.90;;;;;;5085367;28;20389;-65
2022/08/24 04:48:34;;;;;;;4.80;2.42;;;20.50;99.90;;;;;;5085687;28;20385;-66
2022/08/24 04:51:02;;;;;;;5.73;2.30;;;20.50;99.90;;;;;;5086289;28;20595;-65
2022/08/24 04:53:28;;;;;;;3.47;2.20;;;20.50;99.90;;;;;;5085800;28;20386;-65
2022/08/24 04:55:54;;;;;;;4.27;2.30;;;20.50;99.90;;;;;;5085227;28;20440;-65
2022/08/24 04:58:19;;;;;;;4.97;2.03;;;20.50;99.90;;;;;;5085803;28;20378;-65
2022/08/24 05:00:45;;;;;;;4.20;2.20;;;20.50;99.90;;;;;;5085078;28;20386;-65
2022/08/24 05:03:11;;;;;;;5.00;2.47;;;20.40;99.90;;;;;;5083061;28;20450;-65
2022/08/24 05:05:43;;;;;;;6.07;2.33;;;20.40;99.90;;;;;;5081381;28;20374;-65
2022/08/24 05:08:09;;;;;;;5.05;2.30;;;20.40;99.90;;;;;;5082266;28;20385;-65
2022/08/24 05:10:40;;;;;;;4.97;2.50;;;20.40;99.90;;;;;;5082945;28;20397;-65
2022/08/24 05:13:06;;;;;;;4.07;1.98;;;20.40;99.90;;;;;;5081991;28;20447;-65
2022/08/24 05:15:33;;;;;;;4.40;2.30;;;20.40;99.90;;;;;;5080650;28;20647;-65
2022/08/24 05:17:59;;;;;;;4.97;2.13;;;20.40;99.90;;;;;;5083021;28;20374;-65
2022/08/24 05:20:26;;;;;;;4.57;2.15;;;20.40;99.90;;;;;;5082916;28;20531;-65
2022/08/24 05:22:53;;;;;;;5.82;2.25;;;20.40;99.90;;;;;;5083281;28;20405;-65
2022/08/24 05:25:19;;;;;;;4.28;2.22;;;20.40;99.90;;;;;;5084070;28;20686;-65
2022/08/24 05:27:44;;;;;;;3.60;2.30;;;20.40;99.90;;;;;;5083709;28;20474;-65
2022/08/24 05:30:10;;;;;;;4.47;2.20;;;20.40;99.90;;;;;;5084769;28;20394;-65
2022/08/24 05:32:37;;;;;;;3.60;2.40;;;20.40;99.90;;;;;;5085502;28;20452;-65
2022/08/24 05:35:03;;;;;;;4.43;2.05;;;20.40;99.90;;;;;;5086199;28;20494;-65
2022/08/24 05:37:30;;;;;;;4.03;2.28;;;20.40;99.90;;;;;;5083285;28;20692;-66
2022/08/24 05:39:56;;;;;;;5.15;2.13;;;20.50;99.90;;;;;;5083315;28;20557;-65
2022/08/24 05:42:22;;;;;;;3.28;2.15;;;20.50;99.90;;;;;;5082363;28;20413;-66
2022/08/24 05:44:47;;;;;;;5.47;2.10;;;20.60;99.90;;;;;;5082308;28;20661;-65
2022/08/24 05:47:13;;;;;;;3.80;2.40;;;20.60;99.90;;;;;;5081462;28;20447;-65
2022/08/24 05:49:38;;;;;;;3.80;2.20;;;20.60;99.90;;;;;;5080191;28;20390;-65
2022/08/24 05:52:04;;;;;;;3.73;2.30;;;20.60;99.90;;;;;;5078226;28;20382;-66
2022/08/24 05:54:30;;;;;;;7.18;2.72;;;20.70;99.90;;;;;;5081308;28;20556;-66
2022/08/24 05:57:00;;;;;;;5.90;2.50;;;20.60;99.90;;;;;;5079953;28;20410;-65
2022/08/24 05:59:26;;;;;;;4.05;2.50;;;20.60;99.90;;;;;;5076018;28;20382;-66
2022/08/24 06:01:52;;;;;;;4.57;2.10;;;20.70;99.90;;;;;;5077865;28;20386;-66
2022/08/24 06:04:18;;;;;;;3.78;2.20;;;20.70;99.90;;;;;;5076652;28;20805;-66
2022/08/24 06:06:44;;;;;;;4.28;2.50;;;20.70;99.90;;;;;;5075431;28;20440;-66
2022/08/24 06:09:10;;;;;;;5.65;2.33;;;20.70;99.90;;;;;;5075885;28;20481;-66
2022/08/24 06:11:38;;;;;;;4.68;2.30;;;20.70;99.90;;;;;;5076568;28;20450;-66
2022/08/24 06:14:11;;;;;;;4.72;2.20;;;20.70;99.90;;;;;;5077118;28;20403;-66
2022/08/24 06:16:39;;;;;;;4.10;2.20;;;20.80;99.90;;;;;;5075760;28;20466;-67
2022/08/24 06:19:05;;;;;;;4.20;2.55;;;20.80;99.90;;;;;;5074262;28;20628;-66
2022/08/24 06:21:31;;;;;;;3.00;2.10;;;20.90;99.90;;;;;;5075732;28;20476;-66
2022/08/24 06:23:58;;;;;;;4.95;2.47;;;20.90;99.90;;;;;;5077718;28;20708;-66
2022/08/24 06:29:08;;;;;;;4.30;2.25;;;20.90;99.90;;;;;;5074016;28;20805;-66
2022/08/24 06:31:36;;;;;;;5.35;2.30;;;20.90;99.90;;;;;;5073824;28;20378;-66
2022/08/24 06:34:02;;;;;;;7.30;2.55;;;21.00;99.90;;;;;;5084547;28;20688;-66
2022/08/24 06:36:27;;;;;;;3.57;2.20;;;21.00;99.90;;;;;;5077946;28;20465;-66
2022/08/24 06:38:53;;;;;;;3.87;2.20;;;21.10;99.90;;;;;;5076878;28;20678;-66
2022/08/24 06:41:20;;;;;;;5.20;2.38;;;21.10;99.90;;;;;;5075350;28;20372;-66
2022/08/24 06:43:46;;;;;;;3.95;2.08;;;21.10;99.90;;;;;;5073427;28;21079;-66
2022/08/24 06:46:12;;;;;;;6.73;2.77;;;21.20;99.90;;;;;;5093112;28;20479;-66
2022/08/24 06:48:38;;;;;;;5.80;2.28;;;21.30;99.90;;;;;;5074466;28;20457;-67
2022/08/24 06:51:11;;;;;;;5.93;2.53;;;21.30;99.90;;;;;;5073328;28;20658;-66
2022/08/24 06:53:38;;;;;;;6.85;2.38;;;21.30;99.90;;;;;;5073811;28;20834;-66
2022/08/24 06:56:04;;;;;;;3.08;1.90;;;21.40;99.90;;;;;;5075916;28;20431;-66
2022/08/24 06:58:30;;;;;;;6.43;2.23;;;21.40;99.90;;;;;;5078584;28;20376;-66
2022/08/24 07:00:55;;;;;;;4.80;2.30;;;21.50;99.90;;;;;;5094573;28;20680;-66
2022/08/24 07:03:23;;;;;;;5.85;2.40;;;21.60;99.90;;;;;;5075525;28;20391;-66
2022/08/24 07:05:53;;;;;;;3.85;2.30;;;21.50;99.90;;;;;;5076751;28;20407;-66
2022/08/24 07:08:19;;;;;;;6.65;2.35;;;21.50;99.90;;;;;;5076323;28;20709;-66
2022/08/24 07:10:45;;;;;;;5.93;2.70;;;21.60;99.90;;;;;;5075992;28;20582;-66
2022/08/24 07:13:13;;;;;;;5.38;2.28;;;21.60;99.90;;;;;;5091843;28;20392;-66
2022/08/24 07:15:39;;;;;;;3.22;1.92;;;21.60;99.90;;;;;;5075200;28;20411;-66
2022/08/24 07:18:08;;;;;;;4.23;2.13;;;21.70;99.90;;;;;;5093035;28;20395;-66
2022/08/24 07:20:35;;;;;;;3.30;1.98;;;21.80;99.90;;;;;;5072890;28;20798;-66
2022/08/24 07:23:00;;;;;;;4.28;2.40;;;21.90;99.90;;;;;;5074141;28;20500;-66
2022/08/24 07:25:28;;;;;;;6.70;2.60;;;21.80;99.90;;;;;;5093081;28;20408;-66
2022/08/24 07:27:54;;;;;;;5.13;2.55;;;21.80;99.90;;;;;;5073660;28;20475;-66
2022/08/24 07:30:19;;;;;;;4.82;2.00;;;21.90;99.90;;;;;;5073184;28;20671;-66
2022/08/24 07:32:45;;;;;;;3.63;2.20;;;22.00;99.90;;;;;;5074123;28;20384;-66
2022/08/24 07:35:11;;;;;;;3.95;2.30;;;22.10;99.90;;;;;;5071796;28;20618;-66
2022/08/24 07:37:36;;;;;;;3.90;2.17;;;22.20;99.90;;;;;;5073044;28;20426;-66
2022/08/24 07:40:03;;;;;;;4.70;2.43;;;22.20;99.90;;;;;;5070444;28;20397;-66
2022/08/24 07:42:28;;;;;;;4.15;2.50;;;22.30;99.90;;;;;;5070182;28;20683;-66
2022/08/24 07:44:54;;;;;;;3.50;2.30;;;22.30;99.90;;;;;;5072461;28;20778;-66
2022/08/24 07:47:20;;;;;;;6.20;2.38;;;22.30;99.90;;;;;;5069792;28;20389;-66
2022/08/24 07:49:45;;;;;;;4.60;2.40;;;22.30;99.90;;;;;;5070581;28;20941;-66
2022/08/24 07:52:11;;;;;;;3.72;2.13;;;22.40;99.90;;;;;;5071862;28;20421;-65
2022/08/24 07:54:37;;;;;;;3.30;1.80;;;22.40;99.90;;;;;;5072310;28;20425;-66
2022/08/24 07:57:05;;;;;;;4.97;2.47;;;22.50;99.90;;;;;;5073301;28;20504;-66
2022/08/24 07:59:31;;;;;;;4.75;2.60;;;22.50;99.90;;;;;;5074217;28;20609;-66
2022/08/24 08:01:57;;;;;;;4.43;2.20;;;22.50;99.90;;;;;;5071854;28;20460;-66
2022/08/24 08:04:24;;;;;;;4.47;2.25;;;22.60;99.90;;;;;;5073272;28;20393;-66
2022/08/24 08:06:50;;;;;;;2.30;1.98;;;22.60;99.90;;;;;;5074007;28;20693;-67
2022/08/24 08:09:16;;;;;;;13.05;2.30;;;22.60;99.90;;;;;;5069626;28;20398;-66
2022/08/24 08:11:42;;;;;;;3.15;1.95;;;22.70;99.90;;;;;;5069053;28;20439;-66
2022/08/24 08:14:08;;;;;;;4.85;2.00;;;22.70;99.90;;;;;;5066066;28;20670;-66
2022/08/24 08:16:34;;;;;;;6.68;2.70;;;22.80;99.90;;;;;;5064443;28;20837;-66
2022/08/24 08:19:00;;;;;;;4.77;2.40;;;22.80;99.90;;;;;;5065544;28;20443;-66
2022/08/24 08:24:16;;;;;;;4.53;2.20;;;23.00;99.90;;;;;;5065234;28;20381;-66
2022/08/24 08:26:49;;;;;;;5.77;2.40;;;23.00;99.90;;;;;;5069128;28;20378;-66
2022/08/24 08:29:17;;;;;;;4.72;2.70;;;23.00;99.90;;;;;;5079308;28;20986;-66
2022/08/24 08:31:43;;;;;;;6.25;2.50;;;23.10;99.90;;;;;;5080259;28;20390;-66
2022/08/24 08:34:11;;;;;;;4.95;2.20;;;23.10;99.90;;;;;;5092169;28;20700;-66
2022/08/24 08:36:39;;;;;;;5.25;2.78;;;23.20;99.90;;;;;;5082018;28;20668;-66
2022/08/24 08:39:07;;;;;;;3.93;2.20;;;23.20;99.90;;;;;;5101523;28;20392;-66
2022/08/24 08:42:03;;;;;;;3.87;2.43;;;23.20;99.90;;;;;;5080823;28;20482;-66
2022/08/24 08:44:45;;;;;;;4.47;2.42;;;23.30;99.90;;;;;;5082966;28;20372;-66
2022/08/24 08:47:29;;;;;;;2.75;2.22;;;23.30;99.90;;;;;;5082090;28;20923;-66
2022/08/24 08:50:07;;;;;;;3.33;2.00;;;23.40;99.90;;;;;;5080695;28;20419;-66
2022/08/24 08:53:02;;;;;;;4.17;2.60;;;23.50;99.90;;;;;;5082831;28;20376;-65
2022/08/24 08:55:49;;;;;;;4.00;2.38;;;23.50;99.90;;;;;;5087195;28;20908;-66
2022/08/24 08:58:36;;;;;;;3.85;2.40;;;23.50;99.90;;;;;;5107285;28;20391;-66
2022/08/24 09:01:33;;;;;;;4.03;2.40;;;23.60;99.90;;;;;;5090026;28;20380;-66
2022/08/24 09:04:40;;;;;;;3.92;2.22;;;23.70;99.90;;;;;;5091877;28;21027;-69
2022/08/24 09:07:09;;;;;;;5.25;2.22;;;23.80;99.90;;;;;;5003324;28;20633;-66
2022/08/24 09:09:57;;;;;;;3.80;2.13;;;23.90;99.90;;;;;;5069841;28;20469;-66
2022/08/24 09:12:55;;;;;;;4.65;2.53;;;23.90;99.90;;;;;;5084595;28;20381;-66
2022/08/24 09:15:59;;;;;;;4.78;2.53;;;24.00;99.90;;;;;;5084020;28;20676;-66
2022/08/24 09:18:48;;;;;;;4.07;2.28;;;24.10;99.90;;;;;;5083515;28;20433;-67
2022/08/24 09:21:36;;;;;;;5.00;2.30;;;24.10;99.90;;;;;;5087669;28;20661;-66
2022/08/24 09:24:24;;;;;;;2.90;2.00;;;24.20;99.90;;;;;;5080931;28;20419;-66
2022/08/24 09:27:11;;;;;;;4.80;2.28;;;24.20;99.90;;;;;;5100806;28;20372;-66
2022/08/24 09:29:52;;;;;;;5.45;2.38;;;24.20;99.90;;;;;;5080374;28;20720;-67
2022/08/24 09:32:26;;;;;;;2.00;1.80;;;24.30;99.90;;;;;;5081244;28;20426;-66
2022/08/24 09:34:58;;;;;;;2.63;1.95;;;24.30;99.90;;;;;;5081151;28;20404;-67
2022/08/24 09:37:30;;;;;;;3.03;1.95;;;24.40;99.90;;;;;;5100578;28;20663;-67
2022/08/24 09:40:16;;;;;;;4.18;2.10;;;24.50;99.90;;;;;;5084033;28;20687;-66
2022/08/24 09:43:23;;;;;;;5.90;2.42;;;24.50;99.90;;;;;;5082492;28;20368;-66
2022/08/24 09:46:13;;;;;;;4.88;2.20;;;24.60;99.90;;;;;;5101470;28;20456;-67
2022/08/24 09:48:51;;;;;;;4.53;2.45;;;24.60;99.90;;;;;;5083452;28;20484;-67
2022/08/24 09:51:19;;;;;;;2.70;1.80;;;24.70;99.90;;;;;;5082452;28;20388;-67
2022/08/24 09:54:21;;;;;;;4.03;2.27;;;24.70;99.90;;;;;;5084124;28;20404;-66
2022/08/24 09:57:11;;;;;;;3.53;2.13;;;24.70;99.90;;;;;;5083775;28;20404;-67
2022/08/24 09:59:55;;;;;;;3.60;2.28;;;24.80;99.90;;;;;;5085669;28;20732;-66
2022/08/24 10:02:52;;;;;;;4.90;2.22;;;24.80;99.90;;;;;;5104539;28;20467;-66
2022/08/24 10:05:20;;;;;;;4.40;1.92;;;24.80;99.90;;;;;;5086722;28;20384;-67
2022/08/24 10:07:56;;;;;;;2.95;2.10;;;24.90;99.90;;;;;;5102862;28;20391;-67
2022/08/24 10:10:43;;;;;;;3.13;1.95;;;24.90;99.90;;;;;;5081981;28;20415;-66
2022/08/24 10:13:25;;;;;;;2.70;1.80;;;25.00;99.90;;;;;;5098907;28;20497;-66
2022/08/24 10:15:59;;;;;;;3.60;2.13;;;25.00;99.90;;;;;;5080376;28;20472;-66
2022/08/24 10:18:43;;;;;;;3.75;2.00;;;25.10;99.90;;;;;;5082776;28;20665;-66
2022/08/24 10:21:30;;;;;;;2.90;2.00;;;25.20;99.90;;;;;;5080184;28;20837;-66
2022/08/24 10:24:17;;;;;;;4.47;2.20;;;25.20;99.90;;;;;;5079969;28;20565;-67
2022/08/24 10:27:21;;;;;;;7.53;2.05;;;25.20;99.90;;;;;;5079596;28;20388;-66
2022/08/24 10:30:14;;;;;;;2.88;2.00;;;25.30;99.90;;;;;;5075486;28;20445;-66
2022/08/24 10:32:51;;;;;;;2.37;1.90;;;25.30;99.90;;;;;;5075195;28;20706;-66
2022/08/24 10:35:24;;;;;;;4.85;2.60;;;25.40;99.90;;;;;;5093260;28;20470;-66
2022/08/24 10:41:17;;;;;;;3.47;1.88;;;25.50;99.90;;;;;;5095035;28;20403;-67
2022/08/24 10:44:07;;;;;;;4.65;2.20;;;25.50;99.90;;;;;;5096139;28;20404;-66
2022/08/24 10:47:00;;;;;;;3.20;1.88;;;25.60;99.90;;;;;;5078450;28;20622;-66
2022/08/24 10:49:34;;;;;;;3.78;1.92;;;25.70;99.90;;;;;;5085071;28;20384;-66
2022/08/24 10:52:25;;;;;;;5.95;2.65;;;25.70;99.90;;;;;;5097757;28;20566;-66
2022/08/24 10:54:51;;;;;;;3.47;2.22;;;25.80;99.90;;;;;;5095661;28;20446;-66
2022/08/24 10:57:41;;;;;;;6.50;2.22;;;25.80;99.90;;;;;;5077892;28;20461;-66
2022/08/24 11:00:13;;;;;;;3.47;2.00;;;26.00;99.90;;;;;;5096203;28;20376;-66
2022/08/24 11:02:42;;;;;;;2.15;1.50;;;26.00;99.90;;;;;;5095392;28;20376;-66
2022/08/24 11:05:28;;;;;;;4.30;2.05;;;26.00;99.90;;;;;;5074562;28;20695;-66
2022/08/24 11:08:06;;;;;;;1.90;1.70;;;26.20;99.90;;;;;;5073467;28;20441;-66
2022/08/24 11:10:36;;;;;;;4.82;2.03;;;26.40;99.90;;;;;;5079092;28;20450;-67
2022/08/24 11:13:17;;;;;;;2.60;1.50;;;26.70;99.90;;;;;;5081892;28;20427;-67
2022/08/24 11:15:56;;;;;;;3.25;1.90;;;27.00;99.90;;;;;;5083744;28;20435;-66
2022/08/24 11:18:23;;;;;;;4.25;2.25;;;27.30;99.90;;;;;;5082661;28;20747;-66
2022/08/24 11:20:54;;;;;;;3.75;1.98;;;27.60;99.90;;;;;;5082814;28;20655;-66
2022/08/24 11:23:33;;;;;;;4.27;1.90;;;27.90;99.90;;;;;;5080077;28;20458;-66
2022/08/24 11:26:11;;;;;;;3.20;1.65;;;28.10;99.90;;;;;;5100459;28;20491;-66
2022/08/24 11:28:59;;;;;;;2.80;1.67;;;28.20;99.90;;;;;;5082596;28;20384;-66
2022/08/24 11:31:32;;;;;;;8.50;2.55;;;28.40;99.90;;;;;;5097566;28;20415;-66
2022/08/24 11:34:07;;;;;;;2.70;1.80;;;28.60;99.90;;;;;;5097582;28;20875;-67
2022/08/24 11:36:35;;;;;;;5.72;2.10;;;28.50;99.90;;;;;;5082550;28;20404;-67
2022/08/24 11:39:24;;;;;;;4.97;1.70;;;28.50;99.90;;;;;;5099497;28;21179;-66
2022/08/24 11:42:24;;;;;;;4.80;2.20;;;28.60;99.90;;;;;;5082539;28;20380;-66
2022/08/24 11:44:57;;;;;;;3.33;2.00;;;28.70;99.90;;;;;;5084209;28;20369;-66
2022/08/24 11:47:58;;;;;;;3.10;1.70;;;29.00;99.90;;;;;;5084105;28;20423;-66
2022/08/24 11:50:55;;;;;;;2.92;1.95;;;29.30;99.90;;;;;;5079501;28;20383;-67
2022/08/24 11:54:02;;;;;;;4.82;1.90;;;29.40;99.90;;;;;;5099280;28;20441;-66
2022/08/24 11:56:59;;;;;;;2.67;1.85;;;29.40;99.90;;;;;;5086928;28;20415;-66
2022/08/24 11:59:57;;;;;;;2.10;1.60;;;29.40;99.90;;;;;;5103085;28;20372;-66
2022/08/24 12:02:38;;;;;;;4.18;1.73;;;29.60;99.90;;;;;;5060892;28;20755;-67
2022/08/24 12:05:36;;;;;;;2.40;1.67;;;29.90;99.90;;;;;;5079285;28;20416;-66
2022/08/24 12:08:07;;;;;;;3.85;1.60;;;30.00;99.90;;;;;;5079263;28;20388;-66
2022/08/24 12:10:58;;;;;;;4.70;1.98;;;30.40;99.90;;;;;;5094667;28;20388;-65
2022/08/24 12:13:31;;;;;;;5.10;1.75;;;30.50;99.90;;;;;;5062612;28;20904;-66
2022/08/24 12:16:29;;;;;;;3.43;1.70;;;30.60;99.90;;;;;;5072360;28;20442;-66
2022/08/24 12:18:54;;;;;;;2.60;1.63;;;30.70;99.90;;;;;;5071138;28;20380;-66
2022/08/24 12:21:24;;;;;;;5.00;1.90;;;30.80;99.90;;;;;;5090036;28;20368;-66
2022/08/24 12:24:02;;;;;;;3.10;1.80;;;30.90;99.90;;;;;;5072305;28;20368;-67
2022/08/24 12:26:30;;;;;;;2.45;1.55;;;31.00;99.90;;;;;;5072644;28;20388;-66
2022/08/24 12:29:15;;;;;;;4.38;1.90;;;31.20;99.90;;;;;;5093966;28;20388;-66
2022/08/24 12:31:58;;;;;;;3.38;1.83;;;31.30;99.90;;;;;;5079849;28;20391;-66
2022/08/24 12:34:59;;;;;;;1.92;1.58;;;31.30;99.90;;;;;;5100126;28;20412;-66
2022/08/24 12:37:42;;;;;;;4.20;2.30;;;31.50;99.90;;;;;;5105457;28;20425;-66
2022/08/24 12:40:22;;;;;;;3.17;1.90;;;31.30;99.90;;;;;;5088289;28;20376;-66
2022/08/24 12:42:57;;;;;;;2.00;1.50;;;31.60;99.90;;;;;;5101596;28;20460;-66
2022/08/24 12:45:24;;;;;;;3.07;1.80;;;31.40;99.90;;;;;;5085241;28;20387;-67
2022/08/24 12:47:59;;;;;;;1.98;1.75;;;31.60;99.90;;;;;;5071222;28;20411;-66
2022/08/24 12:50:52;;;;;;;3.92;1.98;;;31.90;99.90;;;;;;5087644;28;20484;-66
2022/08/24 12:53:26;;;;;;;2.20;1.40;;;31.80;99.90;;;;;;5104094;28;20376;-66
2022/08/24 12:55:54;;;;;;;2.25;1.52;;;32.10;99.90;;;;;;5083233;28;20400;-66
2022/08/24 12:58:39;;;;;;;1.95;1.67;;;32.30;99.90;;;;;;5084254;28;20400;-66
2022/08/24 13:01:06;;;;;;;3.10;1.80;;;32.60;99.90;;;;;;5102395;28;20368;-67
2022/08/24 13:03:33;;;;;;;2.33;1.42;;;32.60;99.90;;;;;;5084919;28;20441;-66
2022/08/24 13:06:04;;;;;;;3.03;1.52;;;32.80;99.90;;;;;;5087191;28;20523;-66
2022/08/24 13:08:42;;;;;;;3.75;1.77;;;32.90;99.90;;;;;;5089726;28;20467;-66
2022/08/24 13:11:29;;;;;;;2.38;1.50;;;33.10;99.90;;;;;;5109365;28;20818;-66
2022/08/24 13:14:17;;;;;;;1.70;1.30;;;33.10;99.30;;;;;;5109795;28;20396;-66
2022/08/24 13:16:54;;;;;;;2.80;1.90;;;33.30;99.60;;;;;;5089493;28;20483;-66
2022/08/24 13:19:22;;;;;;;2.20;1.40;;;33.40;99.50;;;;;;5109025;28;20368;-66
2022/08/24 13:22:14;;;;;;;2.13;1.50;;;33.50;99.20;;;;;;5089997;28;20780;-66
2022/08/24 13:24:42;;;;;;;2.35;1.60;;;33.40;98.90;;;;;;5070517;28;20395;-67